BTK6180 WIII-WAJJ
Flight info
| Callsign | BTK6180 |
|---|---|
| Flight time | N/A |
| Altitude | 33000 |
| Route | CA T5 BIMAK/N0467F350 T5 LAVAR |
| Aircraft | B738/M-SDE2E3FGHIRWXY/LB1 |
Departure
| Time | 2026-05-06 18:07 |
|---|---|
| Airport | Soekarno-Hatta International Airport (WIII) |
Arrival
| Time | N/A |
|---|---|
| Airport | Dortheys Hiyo Eluay International Airport (WAJJ) |
| Time | Latitude | Longitude | Altitude | Speed | Heading |
|---|---|---|---|---|---|
| 2026-05-06 18:07 | -6.02852 | 106.50555 | 4304 ft | 263 kts | 28° |
| 2026-05-06 18:07 | -6.01422 | 106.51669 | 5020 ft | 262 kts | 54° |
| 2026-05-06 18:08 | -6.00588 | 106.53292 | 5708 ft | 265 kts | 75° |
| 2026-05-06 18:08 | -6.00248 | 106.55121 | 6417 ft | 269 kts | 81° |
| 2026-05-06 18:08 | -5.99997 | 106.56995 | 7078 ft | 272 kts | 82° |
| 2026-05-06 18:08 | -5.99754 | 106.58895 | 7746 ft | 276 kts | 82° |
| 2026-05-06 18:09 | -5.99506 | 106.60810 | 8425 ft | 279 kts | 82° |
| 2026-05-06 18:09 | -5.99248 | 106.62751 | 9098 ft | 282 kts | 82° |
| 2026-05-06 18:09 | -5.98982 | 106.64720 | 9757 ft | 286 kts | 82° |
| 2026-05-06 18:09 | -5.98709 | 106.66709 | 10312 ft | 292 kts | 82° |
| 2026-05-06 18:10 | -5.98418 | 106.68810 | 10456 ft | 314 kts | 82° |
| 2026-05-06 18:10 | -5.98107 | 106.71046 | 10614 ft | 333 kts | 82° |
| 2026-05-06 18:10 | -5.97777 | 106.73414 | 10815 ft | 349 kts | 82° |
| 2026-05-06 18:10 | -5.97441 | 106.75815 | 11273 ft | 354 kts | 82° |
| 2026-05-06 18:11 | -5.97098 | 106.78267 | 11842 ft | 356 kts | 82° |
| 2026-05-06 18:11 | -5.96752 | 106.80734 | 12424 ft | 358 kts | 82° |
| 2026-05-06 18:11 | -5.96541 | 106.83234 | 12931 ft | 361 kts | 94° |
| 2026-05-06 18:11 | -5.97083 | 106.85695 | 13472 ft | 363 kts | 110° |
| 2026-05-06 18:12 | -5.98045 | 106.88046 | 13985 ft | 365 kts | 113° |
| 2026-05-06 18:12 | -5.99069 | 106.90391 | 14438 ft | 369 kts | 113° |
| 2026-05-06 18:12 | -6.00113 | 106.92757 | 14870 ft | 372 kts | 113° |
| 2026-05-06 18:12 | -6.01161 | 106.95150 | 15322 ft | 375 kts | 113° |
| 2026-05-06 18:13 | -6.02206 | 106.97560 | 15772 ft | 378 kts | 113° |
| 2026-05-06 18:13 | -6.03254 | 107.00000 | 16219 ft | 381 kts | 113° |
| 2026-05-06 18:13 | -6.04300 | 107.02451 | 16657 ft | 384 kts | 113° |
| 2026-05-06 18:13 | -6.05356 | 107.04931 | 17092 ft | 387 kts | 113° |
| 2026-05-06 18:14 | -6.06416 | 107.07427 | 17526 ft | 390 kts | 113° |
| 2026-05-06 18:14 | -6.07483 | 107.09938 | 17953 ft | 393 kts | 113° |
| 2026-05-06 18:14 | -6.08561 | 107.12476 | 18329 ft | 396 kts | 113° |
| 2026-05-06 18:14 | -6.09643 | 107.15026 | 18698 ft | 399 kts | 112° |
| 2026-05-06 18:15 | -6.10735 | 107.17597 | 19049 ft | 401 kts | 113° |
| 2026-05-06 18:15 | -6.11833 | 107.20183 | 19408 ft | 403 kts | 113° |
| 2026-05-06 18:15 | -6.12936 | 107.22782 | 19743 ft | 406 kts | 113° |
| 2026-05-06 18:15 | -6.14048 | 107.25401 | 20081 ft | 409 kts | 113° |
| 2026-05-06 18:16 | -6.15165 | 107.28037 | 20420 ft | 411 kts | 112° |
| 2026-05-06 18:16 | -6.16288 | 107.30687 | 20747 ft | 414 kts | 112° |
| 2026-05-06 18:16 | -6.17416 | 107.33353 | 21058 ft | 416 kts | 112° |
| 2026-05-06 18:16 | -6.18554 | 107.36043 | 21381 ft | 419 kts | 112° |
| 2026-05-06 18:17 | -6.19696 | 107.38742 | 21684 ft | 421 kts | 112° |
| 2026-05-06 18:17 | -6.20845 | 107.41458 | 21995 ft | 424 kts | 112° |
| 2026-05-06 18:17 | -6.22001 | 107.44192 | 22288 ft | 426 kts | 112° |
| 2026-05-06 18:17 | -6.23161 | 107.46935 | 22586 ft | 428 kts | 112° |
| 2026-05-06 18:18 | -6.24329 | 107.49698 | 22878 ft | 430 kts | 112° |
| 2026-05-06 18:18 | -6.25502 | 107.52472 | 23154 ft | 432 kts | 112° |
| 2026-05-06 18:18 | -6.26679 | 107.55258 | 23429 ft | 435 kts | 112° |
| 2026-05-06 18:18 | -6.27864 | 107.58062 | 23655 ft | 436 kts | 112° |
| 2026-05-06 18:19 | -6.29051 | 107.60870 | 23889 ft | 438 kts | 112° |
| 2026-05-06 18:19 | -6.30241 | 107.63689 | 24137 ft | 439 kts | 112° |
| 2026-05-06 18:19 | -6.31436 | 107.66518 | 24395 ft | 440 kts | 112° |
| 2026-05-06 18:19 | -6.32633 | 107.69353 | 24633 ft | 441 kts | 112° |
| 2026-05-06 18:20 | -6.33816 | 107.72154 | 24843 ft | 443 kts | 112° |
| 2026-05-06 18:20 | -6.35037 | 107.75046 | 25058 ft | 444 kts | 112° |
| 2026-05-06 18:20 | -6.36230 | 107.77873 | 25275 ft | 446 kts | 112° |
| 2026-05-06 18:20 | -6.37441 | 107.80743 | 25493 ft | 447 kts | 113° |
| 2026-05-06 18:21 | -6.38659 | 107.83630 | 25708 ft | 449 kts | 113° |
| 2026-05-06 18:21 | -6.39878 | 107.86521 | 25924 ft | 450 kts | 113° |
| 2026-05-06 18:21 | -6.41101 | 107.89420 | 26113 ft | 452 kts | 113° |
| 2026-05-06 18:21 | -6.42327 | 107.92330 | 26332 ft | 453 kts | 113° |
| 2026-05-06 18:22 | -6.43557 | 107.95248 | 26552 ft | 454 kts | 113° |
| 2026-05-06 18:22 | -6.44791 | 107.98176 | 26746 ft | 455 kts | 113° |
| 2026-05-06 18:22 | -6.46029 | 108.01112 | 26926 ft | 457 kts | 113° |
| 2026-05-06 18:22 | -6.47287 | 108.04055 | 27103 ft | 459 kts | 113° |
| 2026-05-06 18:23 | -6.48564 | 108.06997 | 27306 ft | 460 kts | 114° |
| 2026-05-06 18:23 | -6.49848 | 108.09942 | 27495 ft | 461 kts | 114° |
| 2026-05-06 18:23 | -6.51136 | 108.12897 | 27671 ft | 462 kts | 114° |
| 2026-05-06 18:23 | -6.52428 | 108.15867 | 27839 ft | 464 kts | 114° |
| 2026-05-06 18:24 | -6.53720 | 108.18841 | 28015 ft | 465 kts | 114° |
| 2026-05-06 18:24 | -6.55015 | 108.21827 | 28201 ft | 466 kts | 114° |
| 2026-05-06 18:24 | -6.56309 | 108.24815 | 28368 ft | 467 kts | 114° |
| 2026-05-06 18:24 | -6.57609 | 108.27817 | 28532 ft | 469 kts | 114° |
| 2026-05-06 18:25 | -6.58912 | 108.30827 | 28686 ft | 470 kts | 114° |
| 2026-05-06 18:25 | -6.60219 | 108.33846 | 28832 ft | 471 kts | 114° |
| 2026-05-06 18:25 | -6.61527 | 108.36869 | 28997 ft | 472 kts | 114° |
| 2026-05-06 18:25 | -6.62839 | 108.39901 | 29151 ft | 473 kts | 114° |
| 2026-05-06 18:26 | -6.64153 | 108.42939 | 29306 ft | 474 kts | 114° |
| 2026-05-06 18:26 | -6.65470 | 108.45982 | 29468 ft | 475 kts | 114° |
| 2026-05-06 18:26 | -6.66788 | 108.49032 | 29633 ft | 475 kts | 114° |
| 2026-05-06 18:26 | -6.68108 | 108.52083 | 29776 ft | 476 kts | 114° |
| 2026-05-06 18:27 | -6.69254 | 108.55207 | 29925 ft | 478 kts | 103° |
| 2026-05-06 18:27 | -6.69580 | 108.58522 | 30087 ft | 478 kts | 87° |
| 2026-05-06 18:27 | -6.69215 | 108.61842 | 30311 ft | 477 kts | 83° |
| 2026-05-06 18:27 | -6.68757 | 108.65098 | 30483 ft | 477 kts | 82° |
| 2026-05-06 18:28 | -6.68266 | 108.68444 | 30629 ft | 477 kts | 82° |
| 2026-05-06 18:28 | -6.67793 | 108.71704 | 30798 ft | 477 kts | 82° |
| 2026-05-06 18:28 | -6.67328 | 108.75002 | 31002 ft | 476 kts | 83° |
| 2026-05-06 18:28 | -6.66876 | 108.78305 | 31199 ft | 475 kts | 83° |
| 2026-05-06 18:29 | -6.66436 | 108.81594 | 31417 ft | 475 kts | 83° |
| 2026-05-06 18:29 | -6.66002 | 108.84887 | 31607 ft | 474 kts | 83° |
| 2026-05-06 18:29 | -6.65571 | 108.88173 | 31792 ft | 474 kts | 83° |
| 2026-05-06 18:29 | -6.65140 | 108.91458 | 31995 ft | 474 kts | 83° |
| 2026-05-06 18:30 | -6.64711 | 108.94736 | 32187 ft | 473 kts | 82° |
| 2026-05-06 18:30 | -6.64280 | 108.98016 | 32391 ft | 473 kts | 82° |
| 2026-05-06 18:30 | -6.63849 | 109.01292 | 32588 ft | 472 kts | 82° |
| 2026-05-06 18:30 | -6.63418 | 109.04563 | 32780 ft | 472 kts | 82° |
| 2026-05-06 18:31 | -6.62987 | 109.07831 | 32961 ft | 472 kts | 82° |
| 2026-05-06 18:31 | -6.62555 | 109.11102 | 33169 ft | 471 kts | 82° |
| 2026-05-06 18:31 | -6.62125 | 109.14363 | 33391 ft | 470 kts | 82° |
| 2026-05-06 18:31 | -6.61694 | 109.17620 | 33612 ft | 469 kts | 82° |
| 2026-05-06 18:32 | -6.61264 | 109.20873 | 33809 ft | 469 kts | 82° |
| 2026-05-06 18:32 | -6.60834 | 109.24124 | 33991 ft | 468 kts | 82° |
| 2026-05-06 18:32 | -6.60405 | 109.27368 | 34158 ft | 468 kts | 82° |
| 2026-05-06 18:32 | -6.59976 | 109.30610 | 34323 ft | 468 kts | 82° |
| 2026-05-06 18:33 | -6.59547 | 109.33854 | 34470 ft | 468 kts | 82° |
| 2026-05-06 18:33 | -6.59116 | 109.37105 | 34635 ft | 468 kts | 82° |
| 2026-05-06 18:33 | -6.58687 | 109.40344 | 34812 ft | 467 kts | 82° |
| 2026-05-06 18:33 | -6.58257 | 109.43580 | 34844 ft | 468 kts | 82° |
| 2026-05-06 18:34 | -6.57394 | 109.50087 | 34856 ft | 470 kts | 82° |
| 2026-05-06 18:34 | -6.56529 | 109.56593 | 34858 ft | 469 kts | 82° |
| 2026-05-06 18:35 | -6.55664 | 109.63094 | 34858 ft | 469 kts | 82° |
| 2026-05-06 18:35 | -6.54799 | 109.69594 | 34859 ft | 469 kts | 82° |
| 2026-05-06 18:36 | -6.53939 | 109.76046 | 34858 ft | 468 kts | 82° |
| 2026-05-06 18:36 | -6.53073 | 109.82537 | 34858 ft | 468 kts | 82° |
| 2026-05-06 18:37 | -6.52347 | 109.87974 | 34858 ft | 468 kts | 82° |
| 2026-05-06 18:37 | -6.51339 | 109.95515 | 34858 ft | 468 kts | 82° |
| 2026-05-06 18:38 | -6.50472 | 110.02000 | 34858 ft | 468 kts | 82° |
| 2026-05-06 18:38 | -6.49602 | 110.08495 | 34858 ft | 468 kts | 82° |
| 2026-05-06 18:39 | -6.48731 | 110.14991 | 34855 ft | 469 kts | 82° |
| 2026-05-06 18:40 | -6.47423 | 110.24732 | 34858 ft | 469 kts | 82° |
| 2026-05-06 18:40 | -6.46550 | 110.31235 | 34859 ft | 469 kts | 82° |
| 2026-05-06 18:41 | -6.45674 | 110.37745 | 34861 ft | 470 kts | 82° |
| 2026-05-06 18:41 | -6.44809 | 110.44255 | 34853 ft | 470 kts | 82° |
| 2026-05-06 18:42 | -6.43952 | 110.50778 | 34859 ft | 471 kts | 82° |
| 2026-05-06 18:42 | -6.43099 | 110.57262 | 34859 ft | 471 kts | 82° |
| 2026-05-06 18:43 | -6.42238 | 110.63789 | 34861 ft | 471 kts | 82° |
| 2026-05-06 18:43 | -6.41375 | 110.70320 | 34862 ft | 472 kts | 82° |
| 2026-05-06 18:44 | -6.40510 | 110.76855 | 34865 ft | 472 kts | 82° |
| 2026-05-06 18:44 | -6.39649 | 110.83359 | 34862 ft | 472 kts | 82° |
| 2026-05-06 18:45 | -6.38782 | 110.89901 | 34867 ft | 472 kts | 82° |
| 2026-05-06 18:45 | -6.37913 | 110.96448 | 34867 ft | 472 kts | 82° |
| 2026-05-06 18:46 | -6.37190 | 111.01888 | 34867 ft | 473 kts | 82° |
| 2026-05-06 18:46 | -6.36320 | 111.08443 | 34862 ft | 473 kts | 82° |
| 2026-05-06 18:47 | -6.35302 | 111.16101 | 34863 ft | 473 kts | 82° |
| 2026-05-06 18:47 | -6.34582 | 111.21541 | 34860 ft | 473 kts | 82° |
| 2026-05-06 18:48 | -6.33715 | 111.28098 | 34861 ft | 473 kts | 82° |
| 2026-05-06 18:48 | -6.32846 | 111.34653 | 34859 ft | 473 kts | 82° |
| 2026-05-06 18:49 | -6.31977 | 111.41209 | 34858 ft | 473 kts | 82° |
| 2026-05-06 18:49 | -6.31106 | 111.47764 | 34860 ft | 473 kts | 82° |
| 2026-05-06 18:50 | -6.30235 | 111.54318 | 34861 ft | 473 kts | 82° |
| 2026-05-06 18:50 | -6.29363 | 111.60869 | 34859 ft | 473 kts | 82° |
| 2026-05-06 18:51 | -6.28490 | 111.67423 | 34859 ft | 473 kts | 82° |
| 2026-05-06 18:51 | -6.27618 | 111.73969 | 34864 ft | 473 kts | 82° |
| 2026-05-06 18:52 | -6.26744 | 111.80521 | 34858 ft | 473 kts | 82° |
| 2026-05-06 18:52 | -6.25861 | 111.87064 | 34860 ft | 472 kts | 82° |
| 2026-05-06 18:53 | -6.24967 | 111.93605 | 34863 ft | 472 kts | 82° |
| 2026-05-06 18:53 | -6.24074 | 112.00141 | 34860 ft | 472 kts | 82° |
| 2026-05-06 18:54 | -6.23181 | 112.06678 | 34859 ft | 472 kts | 82° |
| 2026-05-06 18:54 | -6.22288 | 112.13215 | 34861 ft | 472 kts | 82° |
| 2026-05-06 18:55 | -6.21396 | 112.19745 | 34860 ft | 472 kts | 82° |
| 2026-05-06 18:55 | -6.20508 | 112.26236 | 34858 ft | 472 kts | 82° |
| 2026-05-06 18:56 | -6.19614 | 112.32763 | 34861 ft | 472 kts | 82° |
| 2026-05-06 18:56 | -6.18720 | 112.39291 | 34861 ft | 472 kts | 82° |
| 2026-05-06 18:57 | -6.17825 | 112.45814 | 34862 ft | 472 kts | 82° |
| 2026-05-06 18:57 | -6.16928 | 112.52344 | 34860 ft | 472 kts | 82° |
| 2026-05-06 18:58 | -6.16031 | 112.58873 | 34862 ft | 471 kts | 82° |
| 2026-05-06 18:58 | -6.15133 | 112.65400 | 34860 ft | 472 kts | 82° |
| 2026-05-06 18:59 | -6.14234 | 112.71927 | 34858 ft | 472 kts | 82° |
| 2026-05-06 18:59 | -6.13334 | 112.78454 | 34858 ft | 472 kts | 82° |
| 2026-05-06 19:00 | -6.12434 | 112.84979 | 34860 ft | 472 kts | 82° |
| 2026-05-06 19:00 | -6.11532 | 112.91513 | 34860 ft | 472 kts | 82° |
| 2026-05-06 19:01 | -6.10630 | 112.98039 | 34857 ft | 472 kts | 82° |
| 2026-05-06 19:01 | -6.09726 | 113.04579 | 34855 ft | 472 kts | 82° |
| 2026-05-06 19:02 | -6.08821 | 113.11114 | 34857 ft | 472 kts | 82° |
| 2026-05-06 19:02 | -6.07921 | 113.17608 | 34856 ft | 473 kts | 82° |
| 2026-05-06 19:03 | -6.07014 | 113.24147 | 34856 ft | 473 kts | 82° |
| 2026-05-06 19:03 | -6.06106 | 113.30690 | 34860 ft | 473 kts | 82° |
| 2026-05-06 19:04 | -6.05195 | 113.37243 | 34857 ft | 473 kts | 82° |
| 2026-05-06 19:04 | -6.04285 | 113.43792 | 34849 ft | 474 kts | 82° |
| 2026-05-06 19:05 | -6.03371 | 113.50352 | 34851 ft | 474 kts | 82° |
| 2026-05-06 19:05 | -6.02458 | 113.56912 | 34852 ft | 474 kts | 82° |
| 2026-05-06 19:06 | -6.01543 | 113.63473 | 34850 ft | 474 kts | 82° |
| 2026-05-06 19:06 | -6.00627 | 113.70032 | 34851 ft | 474 kts | 82° |
| 2026-05-06 19:07 | -5.99711 | 113.76595 | 34852 ft | 474 kts | 82° |
| 2026-05-06 19:07 | -5.98794 | 113.83154 | 34851 ft | 474 kts | 82° |
| 2026-05-06 19:08 | -5.97877 | 113.89704 | 34853 ft | 474 kts | 82° |
| 2026-05-06 19:08 | -5.96959 | 113.96259 | 34851 ft | 473 kts | 82° |
| 2026-05-06 19:09 | -5.96043 | 114.02797 | 34854 ft | 473 kts | 82° |
| 2026-05-06 19:09 | -5.95127 | 114.09333 | 34857 ft | 472 kts | 82° |
| 2026-05-06 19:10 | -5.94209 | 114.15871 | 34855 ft | 472 kts | 82° |
| 2026-05-06 19:10 | -5.93292 | 114.22393 | 34854 ft | 472 kts | 82° |
| 2026-05-06 19:11 | -5.92381 | 114.28872 | 34854 ft | 471 kts | 82° |
| 2026-05-06 19:11 | -5.91465 | 114.35386 | 34855 ft | 471 kts | 82° |
| 2026-05-06 19:12 | -5.90548 | 114.41898 | 34855 ft | 471 kts | 82° |
| 2026-05-06 19:12 | -5.89631 | 114.48403 | 34854 ft | 470 kts | 82° |
| 2026-05-06 19:13 | -5.88714 | 114.54906 | 34852 ft | 470 kts | 82° |
| 2026-05-06 19:13 | -5.87797 | 114.61406 | 34858 ft | 470 kts | 82° |
| 2026-05-06 19:14 | -5.86878 | 114.67906 | 34853 ft | 470 kts | 82° |
| 2026-05-06 19:14 | -5.85960 | 114.74402 | 34856 ft | 470 kts | 82° |
| 2026-05-06 19:15 | -5.85041 | 114.80899 | 34854 ft | 470 kts | 82° |
| 2026-05-06 19:15 | -5.84121 | 114.87394 | 34856 ft | 470 kts | 83° |
| 2026-05-06 19:16 | -5.83199 | 114.93896 | 34854 ft | 470 kts | 83° |
| 2026-05-06 19:16 | -5.82277 | 115.00390 | 34855 ft | 470 kts | 83° |
| 2026-05-06 19:17 | -5.81355 | 115.06889 | 34855 ft | 470 kts | 83° |
| 2026-05-06 19:17 | -5.80431 | 115.13389 | 34852 ft | 470 kts | 83° |
| 2026-05-06 19:18 | -5.79506 | 115.19895 | 34850 ft | 470 kts | 83° |
| 2026-05-06 19:18 | -5.78581 | 115.26395 | 34853 ft | 470 kts | 83° |
| 2026-05-06 19:19 | -5.77655 | 115.32889 | 34849 ft | 470 kts | 83° |
| 2026-05-06 19:19 | -5.76734 | 115.39348 | 34853 ft | 470 kts | 83° |
| 2026-05-06 19:20 | -5.75808 | 115.45839 | 34850 ft | 470 kts | 83° |
| 2026-05-06 19:20 | -5.74882 | 115.52326 | 34852 ft | 469 kts | 83° |
| 2026-05-06 19:21 | -5.73955 | 115.58813 | 34847 ft | 469 kts | 82° |
| 2026-05-06 19:21 | -5.73028 | 115.65293 | 34851 ft | 469 kts | 82° |
| 2026-05-06 19:22 | -5.72100 | 115.71771 | 34848 ft | 468 kts | 82° |
| 2026-05-06 19:22 | -5.71174 | 115.78236 | 34849 ft | 468 kts | 82° |
| 2026-05-06 19:23 | -5.70248 | 115.84694 | 34845 ft | 467 kts | 82° |
| 2026-05-06 19:23 | -5.69322 | 115.91149 | 34848 ft | 467 kts | 82° |
| 2026-05-06 19:24 | -5.68394 | 115.97609 | 34849 ft | 467 kts | 82° |
| 2026-05-06 19:24 | -5.67467 | 116.04054 | 34851 ft | 467 kts | 82° |
| 2026-05-06 19:25 | -5.66539 | 116.10502 | 34850 ft | 467 kts | 82° |
| 2026-05-06 19:25 | -5.65611 | 116.16954 | 34847 ft | 467 kts | 82° |
| 2026-05-06 19:26 | -5.64682 | 116.23399 | 34845 ft | 467 kts | 82° |
| 2026-05-06 19:26 | -5.63752 | 116.29851 | 34849 ft | 467 kts | 82° |
| 2026-05-06 19:27 | -5.62821 | 116.36299 | 34847 ft | 467 kts | 82° |
| 2026-05-06 19:27 | -5.61889 | 116.42754 | 34847 ft | 467 kts | 82° |
| 2026-05-06 19:28 | -5.60955 | 116.49212 | 34845 ft | 468 kts | 82° |
| 2026-05-06 19:28 | -5.60020 | 116.55673 | 34841 ft | 468 kts | 82° |
| 2026-05-06 19:29 | -5.59084 | 116.62139 | 34844 ft | 468 kts | 82° |
| 2026-05-06 19:29 | -5.58148 | 116.68600 | 34843 ft | 468 kts | 82° |
| 2026-05-06 19:30 | -5.57211 | 116.75064 | 34840 ft | 468 kts | 82° |
| 2026-05-06 19:30 | -5.56280 | 116.81481 | 34842 ft | 468 kts | 82° |
| 2026-05-06 19:31 | -5.55342 | 116.87942 | 34841 ft | 468 kts | 82° |
| 2026-05-06 19:31 | -5.53935 | 116.97621 | 34840 ft | 467 kts | 82° |
| 2026-05-06 19:32 | -5.52996 | 117.04075 | 34837 ft | 467 kts | 82° |
| 2026-05-06 19:32 | -5.51979 | 117.10507 | 34840 ft | 467 kts | 79° |
| 2026-05-06 19:33 | -5.50703 | 117.16888 | 34841 ft | 466 kts | 78° |
| 2026-05-06 19:33 | -5.49390 | 117.23261 | 34839 ft | 466 kts | 79° |
| 2026-05-06 19:34 | -5.48109 | 117.29634 | 34835 ft | 466 kts | 79° |
| 2026-05-06 19:34 | -5.47060 | 117.34939 | 34836 ft | 466 kts | 79° |
| 2026-05-06 19:35 | -5.45806 | 117.41318 | 34834 ft | 466 kts | 79° |
| 2026-05-06 19:35 | -5.44551 | 117.47695 | 34835 ft | 466 kts | 79° |
| 2026-05-06 19:36 | -5.43294 | 117.54071 | 34836 ft | 466 kts | 79° |
| 2026-05-06 19:36 | -5.42036 | 117.60450 | 34834 ft | 466 kts | 79° |
| 2026-05-06 19:37 | -5.40776 | 117.66830 | 34832 ft | 466 kts | 79° |
| 2026-05-06 19:37 | -5.39514 | 117.73221 | 34831 ft | 466 kts | 79° |
| 2026-05-06 19:38 | -5.38253 | 117.79602 | 34834 ft | 467 kts | 79° |
| 2026-05-06 19:38 | -5.36990 | 117.85989 | 34833 ft | 467 kts | 79° |
| 2026-05-06 19:39 | -5.35726 | 117.92380 | 34831 ft | 467 kts | 79° |
| 2026-05-06 19:39 | -5.34460 | 117.98773 | 34832 ft | 467 kts | 79° |
| 2026-05-06 19:40 | -5.33196 | 118.05156 | 34834 ft | 467 kts | 79° |
| 2026-05-06 19:40 | -5.31929 | 118.11550 | 34834 ft | 467 kts | 79° |
| 2026-05-06 19:41 | -5.30663 | 118.17934 | 34834 ft | 467 kts | 79° |
| 2026-05-06 19:41 | -5.29396 | 118.24320 | 34832 ft | 466 kts | 79° |
| 2026-05-06 19:42 | -5.28131 | 118.30694 | 34834 ft | 466 kts | 79° |
| 2026-05-06 19:42 | -5.26864 | 118.37071 | 34834 ft | 466 kts | 79° |
| 2026-05-06 19:43 | -5.25596 | 118.43453 | 34835 ft | 466 kts | 79° |
| 2026-05-06 19:43 | -5.24329 | 118.49823 | 34833 ft | 466 kts | 78° |
| 2026-05-06 19:44 | -5.23062 | 118.56194 | 34827 ft | 466 kts | 79° |
| 2026-05-06 19:44 | -5.21794 | 118.62564 | 34829 ft | 466 kts | 79° |
| 2026-05-06 19:45 | -5.20525 | 118.68934 | 34831 ft | 466 kts | 79° |
| 2026-05-06 19:45 | -5.19255 | 118.75306 | 34830 ft | 466 kts | 79° |
| 2026-05-06 19:46 | -5.17986 | 118.81672 | 34832 ft | 466 kts | 78° |
| 2026-05-06 19:46 | -5.16714 | 118.88049 | 34827 ft | 466 kts | 78° |
| 2026-05-06 19:47 | -5.15441 | 118.94424 | 34827 ft | 466 kts | 78° |
| 2026-05-06 19:47 | -5.14177 | 119.00753 | 34827 ft | 466 kts | 78° |
| 2026-05-06 19:48 | -5.12903 | 119.07132 | 34828 ft | 466 kts | 78° |
| 2026-05-06 19:48 | -5.11630 | 119.13501 | 34831 ft | 466 kts | 78° |
| 2026-05-06 19:49 | -5.10354 | 119.19876 | 34832 ft | 466 kts | 78° |
| 2026-05-06 19:49 | -5.09072 | 119.26282 | 34840 ft | 466 kts | 78° |
| 2026-05-06 19:50 | -5.07806 | 119.32609 | 34849 ft | 466 kts | 78° |
| 2026-05-06 19:50 | -5.06531 | 119.38975 | 34853 ft | 465 kts | 78° |
| 2026-05-06 19:51 | -5.05255 | 119.45338 | 34856 ft | 465 kts | 78° |
| 2026-05-06 19:51 | -5.03981 | 119.51692 | 34856 ft | 465 kts | 78° |
| 2026-05-06 19:52 | -5.02841 | 119.58076 | 34857 ft | 465 kts | 81° |
| 2026-05-06 19:52 | -5.01878 | 119.64492 | 34858 ft | 465 kts | 81° |
| 2026-05-06 19:53 | -5.00917 | 119.70899 | 34864 ft | 465 kts | 81° |
| 2026-05-06 19:53 | -4.99928 | 119.77303 | 34872 ft | 465 kts | 81° |
| 2026-05-06 19:54 | -4.98924 | 119.83709 | 34880 ft | 465 kts | 81° |
| 2026-05-06 19:54 | -4.97916 | 119.90119 | 34890 ft | 465 kts | 81° |
| 2026-05-06 19:55 | -4.96909 | 119.96518 | 34891 ft | 465 kts | 81° |
| 2026-05-06 19:55 | -4.95900 | 120.02928 | 34894 ft | 465 kts | 81° |
| 2026-05-06 19:56 | -4.94891 | 120.09344 | 34895 ft | 466 kts | 81° |
| 2026-05-06 19:56 | -4.93881 | 120.15754 | 34894 ft | 466 kts | 81° |
| 2026-05-06 19:57 | -4.92870 | 120.22174 | 34884 ft | 466 kts | 81° |
| 2026-05-06 19:57 | -4.91858 | 120.28590 | 34878 ft | 466 kts | 81° |
| 2026-05-06 19:58 | -4.90846 | 120.35009 | 34874 ft | 466 kts | 81° |
| 2026-05-06 19:58 | -4.89831 | 120.41435 | 34867 ft | 466 kts | 81° |
| 2026-05-06 19:59 | -4.88823 | 120.47815 | 34866 ft | 466 kts | 81° |
| 2026-05-06 19:59 | -4.87808 | 120.54237 | 34864 ft | 466 kts | 81° |
| 2026-05-06 20:00 | -4.86793 | 120.60656 | 34861 ft | 466 kts | 81° |
| 2026-05-06 20:00 | -4.85777 | 120.67077 | 34855 ft | 466 kts | 81° |
| 2026-05-06 20:01 | -4.84760 | 120.73495 | 34858 ft | 466 kts | 81° |
| 2026-05-06 20:01 | -4.83743 | 120.79913 | 34855 ft | 466 kts | 81° |
| 2026-05-06 20:02 | -4.82727 | 120.86324 | 34854 ft | 466 kts | 81° |
| 2026-05-06 20:02 | -4.81709 | 120.92738 | 34853 ft | 466 kts | 81° |
| 2026-05-06 20:03 | -4.80692 | 120.99145 | 34857 ft | 465 kts | 81° |
| 2026-05-06 20:03 | -4.79674 | 121.05551 | 34863 ft | 465 kts | 81° |
| 2026-05-06 20:04 | -4.78655 | 121.11963 | 34857 ft | 465 kts | 81° |
| 2026-05-06 20:04 | -4.77636 | 121.18368 | 34853 ft | 465 kts | 81° |
| 2026-05-06 20:05 | -4.76615 | 121.24782 | 34853 ft | 466 kts | 81° |
| 2026-05-06 20:05 | -4.75595 | 121.31191 | 34859 ft | 466 kts | 81° |
| 2026-05-06 20:06 | -4.74573 | 121.37601 | 34857 ft | 466 kts | 81° |
| 2026-05-06 20:06 | -4.73552 | 121.44010 | 34856 ft | 466 kts | 81° |
| 2026-05-06 20:07 | -4.72528 | 121.50428 | 34856 ft | 466 kts | 81° |
| 2026-05-06 20:07 | -4.71504 | 121.56841 | 34857 ft | 466 kts | 81° |
| 2026-05-06 20:08 | -4.70479 | 121.63258 | 34862 ft | 466 kts | 81° |
| 2026-05-06 20:08 | -4.69460 | 121.69636 | 34861 ft | 467 kts | 81° |
| 2026-05-06 20:09 | -4.68432 | 121.76064 | 34862 ft | 467 kts | 81° |
| 2026-05-06 20:09 | -4.67404 | 121.82492 | 34861 ft | 467 kts | 82° |
| 2026-05-06 20:10 | -4.66375 | 121.88918 | 34862 ft | 467 kts | 81° |
| 2026-05-06 20:10 | -4.65344 | 121.95353 | 34868 ft | 467 kts | 82° |
| 2026-05-06 20:11 | -4.64314 | 122.01786 | 34866 ft | 467 kts | 82° |
| 2026-05-06 20:11 | -4.63298 | 122.08218 | 34864 ft | 467 kts | 82° |
| 2026-05-06 20:12 | -4.62284 | 122.14657 | 34863 ft | 467 kts | 82° |
| 2026-05-06 20:12 | -4.61269 | 122.21095 | 34861 ft | 468 kts | 82° |
| 2026-05-06 20:13 | -4.60252 | 122.27532 | 34863 ft | 468 kts | 82° |
| 2026-05-06 20:13 | -4.59235 | 122.33965 | 34865 ft | 467 kts | 82° |
| 2026-05-06 20:14 | -4.58217 | 122.40396 | 34865 ft | 467 kts | 82° |
| 2026-05-06 20:14 | -4.57199 | 122.46829 | 34862 ft | 467 kts | 82° |
| 2026-05-06 20:15 | -4.56182 | 122.53251 | 34862 ft | 467 kts | 82° |
| 2026-05-06 20:15 | -4.55172 | 122.59628 | 34862 ft | 466 kts | 82° |
| 2026-05-06 20:16 | -4.54155 | 122.66042 | 34863 ft | 466 kts | 82° |
| 2026-05-06 20:16 | -4.53139 | 122.72444 | 34863 ft | 465 kts | 82° |
| 2026-05-06 20:17 | -4.52122 | 122.78851 | 34863 ft | 465 kts | 82° |
| 2026-05-06 20:17 | -4.51107 | 122.85243 | 34867 ft | 464 kts | 82° |
| 2026-05-06 20:18 | -4.50091 | 122.91634 | 34864 ft | 464 kts | 82° |
| 2026-05-06 20:18 | -4.49076 | 122.98016 | 34864 ft | 464 kts | 82° |
| 2026-05-06 20:19 | -4.48061 | 123.04394 | 34861 ft | 463 kts | 82° |
| 2026-05-06 20:19 | -4.47048 | 123.10761 | 34859 ft | 463 kts | 82° |
| 2026-05-06 20:20 | -4.46035 | 123.17122 | 34861 ft | 462 kts | 82° |
| 2026-05-06 20:20 | -4.45022 | 123.23479 | 34857 ft | 461 kts | 82° |
| 2026-05-06 20:21 | -4.44181 | 123.28750 | 34857 ft | 461 kts | 82° |
| 2026-05-06 20:21 | -4.43170 | 123.35090 | 34856 ft | 460 kts | 82° |
| 2026-05-06 20:22 | -4.42049 | 123.42454 | 34849 ft | 459 kts | 87° |
| 2026-05-06 20:22 | -4.41877 | 123.47806 | 34850 ft | 458 kts | 90° |
| 2026-05-06 20:23 | -4.41815 | 123.54187 | 34850 ft | 458 kts | 90° |
| 2026-05-06 20:23 | -4.41740 | 123.60573 | 34849 ft | 458 kts | 90° |
| 2026-05-06 20:24 | -4.41634 | 123.66963 | 34845 ft | 459 kts | 90° |
| 2026-05-06 20:24 | -4.41515 | 123.73355 | 34846 ft | 459 kts | 90° |
| 2026-05-06 20:25 | -4.41393 | 123.79763 | 34845 ft | 460 kts | 90° |
| 2026-05-06 20:25 | -4.41271 | 123.86131 | 34844 ft | 461 kts | 90° |
| 2026-05-06 20:26 | -4.41148 | 123.92590 | 34844 ft | 461 kts | 90° |
| 2026-05-06 20:26 | -4.41026 | 123.98978 | 34848 ft | 462 kts | 90° |
| 2026-05-06 20:27 | -4.40903 | 124.05417 | 34846 ft | 463 kts | 90° |
| 2026-05-06 20:27 | -4.40778 | 124.11873 | 34847 ft | 464 kts | 90° |
| 2026-05-06 20:28 | -4.40653 | 124.18331 | 34846 ft | 464 kts | 90° |
| 2026-05-06 20:28 | -4.40527 | 124.24806 | 34849 ft | 465 kts | 90° |
| 2026-05-06 20:29 | -4.40401 | 124.31285 | 34850 ft | 465 kts | 89° |
| 2026-05-06 20:29 | -4.40273 | 124.37775 | 34847 ft | 466 kts | 90° |
| 2026-05-06 20:30 | -4.40081 | 124.47510 | 34850 ft | 466 kts | 90° |
| 2026-05-06 20:31 | -4.39952 | 124.53999 | 34850 ft | 466 kts | 90° |
| 2026-05-06 20:31 | -4.39823 | 124.60486 | 34848 ft | 466 kts | 90° |
| 2026-05-06 20:32 | -4.39694 | 124.66968 | 34850 ft | 465 kts | 90° |
| 2026-05-06 20:32 | -4.39563 | 124.73445 | 34847 ft | 465 kts | 90° |
| 2026-05-06 20:33 | -4.39433 | 124.79918 | 34849 ft | 464 kts | 90° |
| 2026-05-06 20:33 | -4.39302 | 124.86382 | 34847 ft | 464 kts | 90° |
| 2026-05-06 20:34 | -4.39170 | 124.92836 | 34847 ft | 463 kts | 89° |
| 2026-05-06 20:34 | -4.39038 | 124.99290 | 34850 ft | 463 kts | 89° |
| 2026-05-06 20:35 | -4.38906 | 125.05738 | 34850 ft | 463 kts | 89° |
| 2026-05-06 20:35 | -4.38774 | 125.12139 | 34848 ft | 462 kts | 89° |
| 2026-05-06 20:36 | -4.38641 | 125.18572 | 34848 ft | 462 kts | 89° |
| 2026-05-06 20:36 | -4.38507 | 125.25002 | 34850 ft | 461 kts | 89° |
| 2026-05-06 20:37 | -4.38373 | 125.31428 | 34850 ft | 461 kts | 89° |
| 2026-05-06 20:37 | -4.38239 | 125.37855 | 34848 ft | 461 kts | 89° |
| 2026-05-06 20:38 | -4.38103 | 125.44272 | 34852 ft | 461 kts | 89° |
| 2026-05-06 20:38 | -4.37968 | 125.50687 | 34853 ft | 461 kts | 89° |
| 2026-05-06 20:39 | -4.37832 | 125.57104 | 34852 ft | 461 kts | 89° |
| 2026-05-06 20:39 | -4.37695 | 125.63527 | 34852 ft | 461 kts | 89° |
| 2026-05-06 20:40 | -4.37558 | 125.69950 | 34855 ft | 461 kts | 89° |
| 2026-05-06 20:40 | -4.37420 | 125.76374 | 34850 ft | 462 kts | 89° |
| 2026-05-06 20:41 | -4.37281 | 125.82811 | 34851 ft | 462 kts | 89° |
| 2026-05-06 20:41 | -4.37142 | 125.89254 | 34852 ft | 463 kts | 89° |
| 2026-05-06 20:42 | -4.37001 | 125.95702 | 34850 ft | 463 kts | 89° |
| 2026-05-06 20:42 | -4.36861 | 126.02156 | 34850 ft | 464 kts | 89° |
| 2026-05-06 20:43 | -4.36720 | 126.08577 | 34855 ft | 464 kts | 89° |
| 2026-05-06 20:43 | -4.36578 | 126.15044 | 34855 ft | 464 kts | 89° |
| 2026-05-06 20:44 | -4.36435 | 126.21507 | 34856 ft | 464 kts | 89° |
| 2026-05-06 20:44 | -4.36292 | 126.27980 | 34853 ft | 464 kts | 89° |
| 2026-05-06 20:45 | -4.36148 | 126.34448 | 34853 ft | 464 kts | 89° |
| 2026-05-06 20:45 | -4.36004 | 126.40908 | 34858 ft | 464 kts | 89° |
| 2026-05-06 20:46 | -4.35859 | 126.47365 | 34851 ft | 464 kts | 89° |
| 2026-05-06 20:46 | -4.35714 | 126.53820 | 34853 ft | 463 kts | 89° |
| 2026-05-06 20:47 | -4.35568 | 126.60266 | 34854 ft | 463 kts | 89° |
| 2026-05-06 20:47 | -4.35422 | 126.66709 | 34854 ft | 462 kts | 89° |
| 2026-05-06 20:48 | -4.35276 | 126.73146 | 34855 ft | 462 kts | 89° |
| 2026-05-06 20:48 | -4.35129 | 126.79583 | 34853 ft | 462 kts | 89° |
| 2026-05-06 20:49 | -4.34982 | 126.86016 | 34853 ft | 462 kts | 89° |
| 2026-05-06 20:49 | -4.34835 | 126.92445 | 34855 ft | 462 kts | 89° |
| 2026-05-06 20:50 | -4.34686 | 126.98877 | 34855 ft | 462 kts | 89° |
| 2026-05-06 20:50 | -4.34538 | 127.05304 | 34856 ft | 462 kts | 89° |
| 2026-05-06 20:51 | -4.34389 | 127.11728 | 34855 ft | 462 kts | 89° |
| 2026-05-06 20:51 | -4.34239 | 127.18164 | 34855 ft | 462 kts | 89° |
| 2026-05-06 20:52 | -4.34088 | 127.24593 | 34856 ft | 462 kts | 89° |
| 2026-05-06 20:52 | -4.33938 | 127.30986 | 34855 ft | 462 kts | 89° |
| 2026-05-06 20:53 | -4.33787 | 127.37421 | 34855 ft | 462 kts | 89° |
| 2026-05-06 20:53 | -4.33635 | 127.43857 | 34855 ft | 462 kts | 89° |
| 2026-05-06 20:54 | -4.33482 | 127.50295 | 34857 ft | 462 kts | 89° |
| 2026-05-06 20:54 | -4.33329 | 127.56731 | 34853 ft | 462 kts | 88° |
| 2026-05-06 20:55 | -4.33175 | 127.63160 | 34854 ft | 462 kts | 88° |
| 2026-05-06 20:55 | -4.33021 | 127.69592 | 34854 ft | 461 kts | 88° |
| 2026-05-06 20:56 | -4.32867 | 127.75970 | 34855 ft | 461 kts | 88° |
| 2026-05-06 20:56 | -4.32713 | 127.82386 | 34855 ft | 460 kts | 88° |
| 2026-05-06 20:57 | -4.32557 | 127.88792 | 34855 ft | 460 kts | 88° |
| 2026-05-06 20:57 | -4.32402 | 127.95194 | 34855 ft | 459 kts | 88° |
| 2026-05-06 20:58 | -4.32246 | 128.01587 | 34854 ft | 459 kts | 88° |
| 2026-05-06 20:58 | -4.32089 | 128.07979 | 34854 ft | 459 kts | 88° |
| 2026-05-06 20:59 | -4.31932 | 128.14359 | 34856 ft | 458 kts | 88° |
| 2026-05-06 20:59 | -4.31775 | 128.20740 | 34855 ft | 458 kts | 88° |
| 2026-05-06 21:00 | -4.31617 | 128.27118 | 34855 ft | 458 kts | 88° |
| 2026-05-06 21:00 | -4.31459 | 128.33491 | 34856 ft | 458 kts | 88° |
| 2026-05-06 21:01 | -4.31301 | 128.39867 | 34852 ft | 457 kts | 88° |
| 2026-05-06 21:01 | -4.31141 | 128.46235 | 34855 ft | 457 kts | 88° |
| 2026-05-06 21:02 | -4.30982 | 128.52596 | 34857 ft | 457 kts | 88° |
| 2026-05-06 21:02 | -4.30822 | 128.58967 | 34849 ft | 457 kts | 88° |
| 2026-05-06 21:03 | -4.30661 | 128.65323 | 34858 ft | 457 kts | 88° |
| 2026-05-06 21:03 | -4.30501 | 128.71682 | 34863 ft | 457 kts | 88° |
| 2026-05-06 21:04 | -4.30340 | 128.78000 | 34858 ft | 457 kts | 88° |
| 2026-05-06 21:04 | -4.30178 | 128.84363 | 34859 ft | 457 kts | 88° |
| 2026-05-06 21:05 | -4.30015 | 128.90732 | 34860 ft | 457 kts | 88° |
| 2026-05-06 21:05 | -4.29852 | 128.97105 | 34859 ft | 458 kts | 88° |
| 2026-05-06 21:06 | -4.29688 | 129.03482 | 34857 ft | 458 kts | 88° |
| 2026-05-06 21:06 | -4.29523 | 129.09867 | 34858 ft | 459 kts | 88° |
| 2026-05-06 21:07 | -4.29357 | 129.16262 | 34857 ft | 460 kts | 88° |
| 2026-05-06 21:07 | -4.29191 | 129.22666 | 34859 ft | 460 kts | 88° |
| 2026-05-06 21:08 | -4.29024 | 129.29081 | 34859 ft | 461 kts | 88° |
| 2026-05-06 21:08 | -4.28856 | 129.35507 | 34856 ft | 462 kts | 88° |
| 2026-05-06 21:09 | -4.28687 | 129.41940 | 34862 ft | 462 kts | 88° |
| 2026-05-06 21:09 | -4.28518 | 129.48383 | 34862 ft | 463 kts | 88° |
| 2026-05-06 21:10 | -4.28347 | 129.54828 | 34863 ft | 463 kts | 88° |
| 2026-05-06 21:10 | -4.28206 | 129.60187 | 34857 ft | 463 kts | 88° |
| 2026-05-06 21:11 | -4.28035 | 129.66640 | 34862 ft | 463 kts | 88° |
| 2026-05-06 21:11 | -4.27774 | 129.73083 | 34858 ft | 463 kts | 83° |
| 2026-05-06 21:12 | -4.26681 | 129.80490 | 34865 ft | 463 kts | 80° |
| 2026-05-06 21:12 | -4.25789 | 129.85811 | 34867 ft | 462 kts | 80° |
| 2026-05-06 21:13 | -4.24592 | 129.93203 | 34865 ft | 462 kts | 81° |
| 2026-05-06 21:13 | -4.23758 | 129.98538 | 34867 ft | 462 kts | 81° |
| 2026-05-06 21:14 | -4.22776 | 130.04904 | 34869 ft | 463 kts | 81° |
| 2026-05-06 21:14 | -4.21802 | 130.11233 | 34870 ft | 463 kts | 81° |
| 2026-05-06 21:15 | -4.20819 | 130.17603 | 34867 ft | 463 kts | 81° |
| 2026-05-06 21:15 | -4.19835 | 130.23972 | 34868 ft | 463 kts | 81° |
| 2026-05-06 21:16 | -4.18849 | 130.30348 | 34869 ft | 463 kts | 81° |
| 2026-05-06 21:16 | -4.17863 | 130.36721 | 34866 ft | 463 kts | 81° |
| 2026-05-06 21:17 | -4.16876 | 130.43094 | 34869 ft | 463 kts | 81° |
| 2026-05-06 21:17 | -4.15888 | 130.49474 | 34869 ft | 463 kts | 81° |
| 2026-05-06 21:18 | -4.14900 | 130.55852 | 34870 ft | 464 kts | 81° |
| 2026-05-06 21:18 | -4.13909 | 130.62237 | 34870 ft | 464 kts | 81° |
| 2026-05-06 21:19 | -4.12918 | 130.68624 | 34870 ft | 464 kts | 81° |
| 2026-05-06 21:19 | -4.11926 | 130.75013 | 34867 ft | 464 kts | 81° |
| 2026-05-06 21:20 | -4.10934 | 130.81402 | 34874 ft | 464 kts | 81° |
| 2026-05-06 21:20 | -4.09941 | 130.87793 | 34872 ft | 464 kts | 81° |
| 2026-05-06 21:21 | -4.08947 | 130.94185 | 34872 ft | 464 kts | 81° |
| 2026-05-06 21:21 | -4.07953 | 131.00576 | 34872 ft | 464 kts | 81° |
| 2026-05-06 21:22 | -4.06958 | 131.06966 | 34870 ft | 464 kts | 81° |
| 2026-05-06 21:22 | -4.05963 | 131.13358 | 34871 ft | 464 kts | 81° |
| 2026-05-06 21:23 | -4.04968 | 131.19741 | 34871 ft | 464 kts | 81° |
| 2026-05-06 21:23 | -4.03979 | 131.26085 | 34870 ft | 464 kts | 81° |
| 2026-05-06 21:24 | -4.02984 | 131.32467 | 34870 ft | 464 kts | 81° |
| 2026-05-06 21:24 | -4.01988 | 131.38849 | 34873 ft | 463 kts | 81° |
| 2026-05-06 21:25 | -4.00993 | 131.45221 | 34874 ft | 463 kts | 81° |
| 2026-05-06 21:25 | -3.99998 | 131.51590 | 34871 ft | 463 kts | 81° |
| 2026-05-06 21:26 | -3.99002 | 131.57964 | 34875 ft | 463 kts | 81° |
| 2026-05-06 21:26 | -3.98006 | 131.64333 | 34873 ft | 462 kts | 81° |
| 2026-05-06 21:27 | -3.97011 | 131.70691 | 34872 ft | 462 kts | 81° |
| 2026-05-06 21:27 | -3.96016 | 131.77048 | 34873 ft | 462 kts | 81° |
| 2026-05-06 21:28 | -3.95020 | 131.83404 | 34875 ft | 462 kts | 81° |
| 2026-05-06 21:28 | -3.94026 | 131.89752 | 34874 ft | 462 kts | 81° |
| 2026-05-06 21:29 | -3.93029 | 131.96106 | 34873 ft | 462 kts | 81° |
| 2026-05-06 21:29 | -3.92040 | 132.02412 | 34873 ft | 462 kts | 81° |
| 2026-05-06 21:30 | -3.91043 | 132.08764 | 34874 ft | 462 kts | 81° |
| 2026-05-06 21:30 | -3.90046 | 132.15115 | 34875 ft | 462 kts | 81° |
| 2026-05-06 21:31 | -3.89047 | 132.21474 | 34876 ft | 462 kts | 81° |
| 2026-05-06 21:31 | -3.88048 | 132.27832 | 34880 ft | 462 kts | 81° |
| 2026-05-06 21:32 | -3.87047 | 132.34195 | 34878 ft | 463 kts | 81° |
| 2026-05-06 21:32 | -3.85544 | 132.43749 | 34877 ft | 463 kts | 81° |
| 2026-05-06 21:33 | -3.84541 | 132.50117 | 34879 ft | 463 kts | 81° |
| 2026-05-06 21:33 | -3.83536 | 132.56494 | 34882 ft | 464 kts | 80° |
| 2026-05-06 21:34 | -3.82532 | 132.62870 | 34877 ft | 464 kts | 81° |
| 2026-05-06 21:34 | -3.81525 | 132.69251 | 34883 ft | 464 kts | 81° |
| 2026-05-06 21:35 | -3.80518 | 132.75632 | 34892 ft | 464 kts | 81° |
| 2026-05-06 21:35 | -3.79512 | 132.82006 | 34893 ft | 464 kts | 81° |
| 2026-05-06 21:36 | -3.78509 | 132.88356 | 34893 ft | 464 kts | 81° |
| 2026-05-06 21:36 | -3.77501 | 132.94742 | 34892 ft | 465 kts | 81° |
| 2026-05-06 21:37 | -3.76489 | 133.01140 | 34897 ft | 465 kts | 81° |
| 2026-05-06 21:37 | -3.75478 | 133.07536 | 34897 ft | 466 kts | 81° |
| 2026-05-06 21:38 | -3.74464 | 133.13945 | 34896 ft | 466 kts | 81° |
| 2026-05-06 21:38 | -3.73449 | 133.20352 | 34894 ft | 466 kts | 81° |
| 2026-05-06 21:39 | -3.72434 | 133.26764 | 34891 ft | 466 kts | 81° |
| 2026-05-06 21:39 | -3.71417 | 133.33179 | 34888 ft | 466 kts | 81° |
| 2026-05-06 21:40 | -3.70400 | 133.39594 | 34891 ft | 466 kts | 81° |
| 2026-05-06 21:40 | -3.69384 | 133.46002 | 34886 ft | 466 kts | 81° |
| 2026-05-06 21:41 | -3.68367 | 133.52408 | 34887 ft | 466 kts | 81° |
| 2026-05-06 21:41 | -3.67352 | 133.58806 | 34890 ft | 465 kts | 81° |
| 2026-05-06 21:42 | -3.66337 | 133.65196 | 34893 ft | 465 kts | 81° |
| 2026-05-06 21:42 | -3.65323 | 133.71576 | 34896 ft | 464 kts | 81° |
| 2026-05-06 21:43 | -3.64316 | 133.77912 | 34903 ft | 464 kts | 81° |
| 2026-05-06 21:43 | -3.63295 | 133.84331 | 34905 ft | 464 kts | 81° |
| 2026-05-06 21:44 | -3.62288 | 133.90658 | 34909 ft | 463 kts | 81° |
| 2026-05-06 21:44 | -3.61274 | 133.97023 | 34914 ft | 463 kts | 81° |
| 2026-05-06 21:45 | -3.60261 | 134.03386 | 34917 ft | 463 kts | 81° |
| 2026-05-06 21:45 | -3.59248 | 134.09745 | 34921 ft | 462 kts | 81° |
| 2026-05-06 21:46 | -3.58234 | 134.16101 | 34925 ft | 462 kts | 81° |
| 2026-05-06 21:46 | -3.57222 | 134.22450 | 34927 ft | 462 kts | 81° |
| 2026-05-06 21:47 | -3.56209 | 134.28795 | 34929 ft | 462 kts | 81° |
| 2026-05-06 21:47 | -3.55196 | 134.35139 | 34926 ft | 461 kts | 81° |
| 2026-05-06 21:48 | -3.54191 | 134.41435 | 34933 ft | 461 kts | 81° |
| 2026-05-06 21:48 | -3.53179 | 134.47764 | 34932 ft | 460 kts | 81° |
| 2026-05-06 21:49 | -3.52169 | 134.54088 | 34930 ft | 460 kts | 81° |
| 2026-05-06 21:49 | -3.51158 | 134.60408 | 34931 ft | 460 kts | 81° |
| 2026-05-06 21:50 | -3.50147 | 134.66724 | 34924 ft | 459 kts | 81° |
| 2026-05-06 21:50 | -3.49137 | 134.73034 | 34923 ft | 459 kts | 81° |
| 2026-05-06 21:51 | -3.48127 | 134.79344 | 34919 ft | 459 kts | 81° |
| 2026-05-06 21:51 | -3.47117 | 134.85648 | 34916 ft | 459 kts | 81° |
| 2026-05-06 21:52 | -3.46105 | 134.91958 | 34912 ft | 459 kts | 81° |
| 2026-05-06 21:52 | -3.45093 | 134.98273 | 34910 ft | 459 kts | 81° |
| 2026-05-06 21:53 | -3.44079 | 135.04593 | 34905 ft | 460 kts | 81° |
| 2026-05-06 21:53 | -3.43066 | 135.10908 | 34902 ft | 460 kts | 81° |
| 2026-05-06 21:54 | -3.42051 | 135.17230 | 34895 ft | 460 kts | 81° |
| 2026-05-06 21:54 | -3.41034 | 135.23560 | 34897 ft | 460 kts | 81° |
| 2026-05-06 21:55 | -3.40018 | 135.29885 | 34893 ft | 460 kts | 81° |
| 2026-05-06 21:55 | -3.39001 | 135.36209 | 34894 ft | 460 kts | 81° |
| 2026-05-06 21:56 | -3.37986 | 135.42527 | 34891 ft | 460 kts | 81° |
| 2026-05-06 21:56 | -3.36967 | 135.48855 | 34894 ft | 460 kts | 81° |
| 2026-05-06 21:57 | -3.35966 | 135.55180 | 34896 ft | 460 kts | 81° |
| 2026-05-06 21:57 | -3.34984 | 135.61506 | 34900 ft | 460 kts | 81° |
| 2026-05-06 21:58 | -3.34002 | 135.67833 | 34899 ft | 460 kts | 81° |
| 2026-05-06 21:58 | -3.33018 | 135.74154 | 34907 ft | 460 kts | 81° |
| 2026-05-06 21:59 | -3.32032 | 135.80476 | 34906 ft | 460 kts | 81° |
| 2026-05-06 21:59 | -3.31046 | 135.86796 | 34914 ft | 459 kts | 81° |
| 2026-05-06 22:00 | -3.30060 | 135.93109 | 34918 ft | 459 kts | 81° |
| 2026-05-06 22:00 | -3.29081 | 135.99380 | 34922 ft | 459 kts | 81° |
| 2026-05-06 22:01 | -3.28095 | 136.05687 | 34923 ft | 459 kts | 81° |
| 2026-05-06 22:01 | -3.27108 | 136.12002 | 34931 ft | 459 kts | 81° |
| 2026-05-06 22:02 | -3.26281 | 136.17289 | 34934 ft | 459 kts | 81° |
| 2026-05-06 22:02 | -3.25133 | 136.24628 | 34947 ft | 460 kts | 81° |
| 2026-05-06 22:03 | -3.24306 | 136.29915 | 34949 ft | 460 kts | 81° |
| 2026-05-06 22:03 | -3.23312 | 136.36263 | 34965 ft | 461 kts | 81° |
| 2026-05-06 22:04 | -3.22318 | 136.42609 | 34959 ft | 462 kts | 81° |
| 2026-05-06 22:04 | -3.21321 | 136.48974 | 34954 ft | 463 kts | 81° |
| 2026-05-06 22:05 | -3.20323 | 136.55337 | 34956 ft | 463 kts | 81° |
| 2026-05-06 22:05 | -3.19331 | 136.61661 | 34957 ft | 463 kts | 81° |
| 2026-05-06 22:06 | -3.18332 | 136.68028 | 34944 ft | 463 kts | 81° |
| 2026-05-06 22:06 | -3.17333 | 136.74393 | 34943 ft | 463 kts | 81° |
| 2026-05-06 22:07 | -3.16335 | 136.80752 | 34933 ft | 462 kts | 81° |
| 2026-05-06 22:07 | -3.15336 | 136.87107 | 34935 ft | 462 kts | 81° |
| 2026-05-06 22:08 | -3.14339 | 136.93450 | 34928 ft | 461 kts | 81° |
| 2026-05-06 22:08 | -3.13343 | 136.99786 | 34918 ft | 461 kts | 81° |
| 2026-05-06 22:09 | -3.12348 | 137.06116 | 34918 ft | 460 kts | 81° |
| 2026-05-06 22:09 | -3.11352 | 137.12443 | 34911 ft | 460 kts | 81° |
| 2026-05-06 22:10 | -3.10358 | 137.18761 | 34909 ft | 460 kts | 81° |
| 2026-05-06 22:10 | -3.09364 | 137.25074 | 34904 ft | 459 kts | 81° |
| 2026-05-06 22:11 | -3.08370 | 137.31383 | 34902 ft | 459 kts | 81° |
| 2026-05-06 22:11 | -3.07376 | 137.37690 | 34902 ft | 459 kts | 81° |
| 2026-05-06 22:12 | -3.06382 | 137.43994 | 34905 ft | 458 kts | 81° |
| 2026-05-06 22:12 | -3.05396 | 137.50247 | 34903 ft | 458 kts | 81° |
| 2026-05-06 22:13 | -3.04403 | 137.56539 | 34900 ft | 458 kts | 81° |
| 2026-05-06 22:13 | -3.03411 | 137.62825 | 34907 ft | 457 kts | 81° |
| 2026-05-06 22:14 | -3.02419 | 137.69105 | 34905 ft | 457 kts | 81° |
| 2026-05-06 22:14 | -3.01427 | 137.75385 | 34903 ft | 456 kts | 81° |
| 2026-05-06 22:15 | -3.00438 | 137.81645 | 34902 ft | 456 kts | 81° |
| 2026-05-06 22:15 | -2.99448 | 137.87908 | 34904 ft | 455 kts | 81° |
| 2026-05-06 22:16 | -2.98459 | 137.94165 | 34906 ft | 455 kts | 81° |
| 2026-05-06 22:16 | -2.97469 | 138.00418 | 34904 ft | 455 kts | 81° |
| 2026-05-06 22:17 | -2.96481 | 138.06664 | 34902 ft | 455 kts | 81° |
| 2026-05-06 22:17 | -2.95492 | 138.12912 | 34899 ft | 455 kts | 81° |
| 2026-05-06 22:18 | -2.94503 | 138.19155 | 34901 ft | 455 kts | 81° |
| 2026-05-06 22:18 | -2.93513 | 138.25405 | 34896 ft | 455 kts | 81° |
| 2026-05-06 22:19 | -2.92522 | 138.31657 | 34902 ft | 455 kts | 81° |
| 2026-05-06 22:19 | -2.91530 | 138.37911 | 34895 ft | 455 kts | 81° |
| 2026-05-06 22:20 | -2.90538 | 138.44168 | 34902 ft | 455 kts | 81° |
| 2026-05-06 22:20 | -2.89546 | 138.50422 | 34902 ft | 456 kts | 81° |
| 2026-05-06 22:21 | -2.88552 | 138.56685 | 34901 ft | 456 kts | 81° |
| 2026-05-06 22:21 | -2.87556 | 138.62953 | 34904 ft | 456 kts | 81° |
| 2026-05-06 22:22 | -2.86562 | 138.69216 | 34899 ft | 456 kts | 81° |
| 2026-05-06 22:22 | -2.85567 | 138.75479 | 34905 ft | 456 kts | 81° |
| 2026-05-06 22:23 | -2.85410 | 138.76464 | 34906 ft | 456 kts | 81° |